Impacts METAR Board
IDs:

KDCA - Washington/National, VA, US

Updated at: 1200 UTC 16 Sep 2019
Potential Impact None Slight Moderate High
Time 16/00Z 16/01Z 16/02Z 16/03Z 16/04Z 16/05Z 16/06Z 16/07Z 16/08Z 16/09Z 16/10Z 16/11Z 16/12Z
Temp80 77 76 75 73 72 71 70 69 69 69 68 70
Dewpt57 63 62 63 62 62 61 63 62 63 63 63 66
Altim30.09 30.10 30.11 30.11 30.11 30.10 30.10 30.08 30.08 30.08 30.08 30.08 30.08
VIS10 10 10 10 10 10 10 10 10 10 10 10 10
CIG-- -- -- -- -- -- -- -- -- -- 120 -- --
CoverFEWCLRCLRCLRCLRFEWSCTFEWSCTSCTBKNFEWFEW
FltCatVFRVFRVFRVFRVFRVFRVFRVFRVFRVFRVFRVFRVFR
WX--------------------------
WDir3601200024020002000000180
WSpd4 5 0 0 3 3 0 3 0 0 0 0 3
WGst-- -- -- -- -- -- -- -- -- -- -- -- --
Raw hourly METARs
KDCA 152352Z 36004KT 10SM FEW140 FEW250 27/14 A3009 RMK AO2 SLP189 T02670139 10322 20261 58003
KDCA 160052Z 12005KT 10SM CLR 25/17 A3010 RMK AO2 SLP193 T02500172
KDCA 160152Z 00000KT 10SM CLR 24/17 A3011 RMK AO2 SLP195 T02440167
KDCA 160252Z 00000KT 10SM CLR 24/17 A3011 RMK AO2 SLP195 T02390172 51005
KDCA 160352Z 24003KT 10SM CLR 23/17 A3011 RMK AO2 SLP194 T02280167
KDCA 160452Z 20003KT 10SM FEW150 FEW250 22/17 A3010 RMK AO2 SLP192 T02220167 403220222
KDCA 160552Z 00000KT 10SM FEW150 SCT250 22/16 A3010 RMK AO2 SLP191 T02170161 10267 20206 58004
KDCA 160652Z 20003KT 10SM FEW150 FEW250 21/17 A3008 RMK AO2 SLP187 T02110172
KDCA 160752Z 00000KT 10SM SCT130 SCT250 21/17 A3008 RMK AO2 SLP185 T02060167
KDCA 160852Z 00000KT 10SM SCT120 SCT250 21/17 A3008 RMK AO2 SLP185 T02060172 55006
KDCA 160952Z 00000KT 10SM BKN120 BKN250 21/17 A3008 RMK AO2 SLP184 T02060172
KDCA 161052Z 00000KT 10SM FEW120 FEW250 20/17 A3008 RMK AO2 SLP184 T02000172
KDCA 161152Z 18003KT 10SM FEW140 FEW250 21/19 A3008 RMK AO2 SLP184 T02110189 10222 20200 56001



Page loaded:  12:50 UTC  |   05:50 AM Pacific  |   06:50 AM Mountain  |   07:50 AM Central  |   08:50 AM Eastern

 

ADVISORIES

FORECASTS

FORECASTS

OBSERVATIONS

USER TOOLS

ABOUT US